Time;durP1;ratioP1;P1;durP2;ratioP2;P2;SDS_P1;SDS_P2;PMS_P1;PMS_P2;Temp;Humidity;BMP_temperature;BMP_pressure;BME280_temperature;BME280_humidity;BME280_pressure;Samples;Min_cycle;Max_cycle;Signal;HPM_P1;HPM_P2
2022/11/20 00:01:24;;;;;;;66.93;31.20;;;;;;;-6.80;78.42;98668.67;2256425;79;21288;-79
2022/11/20 00:04:25;;;;;;;66.47;31.77;;;;;;;-6.75;78.42;98666.98;2256406;79;20912;-80
2022/11/20 00:07:25;;;;;;;62.57;28.93;;;;;;;-6.80;77.44;98667.41;2256664;79;20916;-81
2022/11/20 00:10:26;;;;;;;69.43;30.50;;;;;;;-6.85;77.67;98671.25;2256603;79;20896;-80
2022/11/20 00:13:26;;;;;;;59.40;29.47;;;;;;;-6.88;77.60;98663.02;2256697;79;20987;-80
2022/11/20 00:16:26;;;;;;;60.83;28.90;;;;;;;-6.91;77.52;98665.70;2256527;79;20943;-80
2022/11/20 00:19:27;;;;;;;58.80;28.63;;;;;;;-6.92;77.45;98662.28;2256714;79;20904;-79
2022/11/20 00:22:27;;;;;;;56.13;27.60;;;;;;;-6.99;77.39;98668.02;2256794;79;20936;-80
2022/11/20 00:25:27;;;;;;;66.53;30.00;;;;;;;-7.03;77.07;98655.86;2256785;79;20924;-80
2022/11/20 00:28:28;;;;;;;65.50;31.37;;;;;;;-7.03;77.17;98659.66;2256805;79;21294;-80
2022/11/20 00:31:28;;;;;;;56.70;27.53;;;;;;;-7.01;77.27;98655.20;2256628;79;20944;-79
2022/11/20 00:34:29;;;;;;;59.13;28.80;;;;;;;-6.96;76.79;98650.48;2256425;79;20951;-80
2022/11/20 00:37:29;;;;;;;55.70;27.73;;;;;;;-7.07;76.39;98651.81;2256574;79;20888;-80
2022/11/20 00:40:29;;;;;;;60.17;29.90;;;;;;;-7.15;76.65;98646.55;2256355;79;20955;-80
2022/11/20 00:43:30;;;;;;;63.37;29.40;;;;;;;-7.19;76.79;98635.66;2258366;78;21054;-79
2022/11/20 00:46:30;;;;;;;57.17;28.50;;;;;;;-7.18;76.97;98642.89;2260544;79;20936;-80
2022/11/20 00:49:31;;;;;;;61.50;28.87;;;;;;;-7.18;76.68;98639.97;2260547;79;20947;-80
2022/11/20 00:52:31;;;;;;;53.70;27.43;;;;;;;-7.17;76.50;98639.58;2260291;79;20981;-81
2022/11/20 00:55:31;;;;;;;60.20;27.63;;;;;;;-7.22;76.37;98643.03;2260306;79;20946;-80
2022/11/20 00:58:32;;;;;;;60.10;28.00;;;;;;;-7.23;76.33;98642.53;2259858;79;20960;-81
2022/11/20 01:01:32;;;;;;;59.43;28.73;;;;;;;-7.26;76.47;98642.30;2260295;79;20881;-80
2022/11/20 01:04:33;;;;;;;57.60;29.53;;;;;;;-7.27;76.72;98634.57;2260433;79;20959;-80
2022/11/20 01:07:33;;;;;;;54.60;27.00;;;;;;;-7.25;76.55;98639.38;2260447;79;21319;-80
2022/11/20 01:10:33;;;;;;;58.37;28.07;;;;;;;-7.30;75.73;98644.09;2260391;79;20967;-80
2022/11/20 01:13:37;;;;;;;65.30;30.70;;;;;;;-7.37;75.84;98643.13;2260137;79;20991;-80
2022/11/20 01:16:37;;;;;;;62.37;28.20;;;;;;;-7.35;76.24;98640.70;2260405;79;20900;-80
2022/11/20 01:19:37;;;;;;;59.13;28.30;;;;;;;-7.30;76.43;98635.60;2260397;79;20876;-79
2022/11/20 01:22:39;;;;;;;53.57;28.07;;;;;;;-7.28;76.17;98632.42;2260409;79;20944;-79
2022/11/20 01:25:39;;;;;;;63.27;29.93;;;;;;;-7.29;76.15;98631.03;2260359;79;20912;-80
2022/11/20 01:28:40;;;;;;;59.23;27.27;;;;;;;-7.30;76.10;98628.87;2260427;79;20881;-79
2022/11/20 01:31:40;;;;;;;57.20;28.77;;;;;;;-7.29;76.53;98630.65;2260715;79;21308;-79
2022/11/20 01:34:40;;;;;;;58.97;29.70;;;;;;;-7.26;76.81;98623.66;2260888;79;20912;-79
2022/11/20 01:37:41;;;;;;;63.83;29.70;;;;;;;-7.22;77.16;98618.94;2260679;79;20900;-79
2022/11/20 01:40:41;;;;;;;57.77;28.33;;;;;;;-7.19;77.37;98612.83;2260821;79;21323;-79
2022/11/20 01:43:41;;;;;;;65.87;32.43;;;;;;;-7.14;77.85;98610.64;2258951;78;20999;-79
2022/11/20 01:46:42;;;;;;;65.37;33.37;;;;;;;-7.11;77.59;98603.27;2256747;79;20913;-80
2022/11/20 01:49:42;;;;;;;66.50;31.20;;;;;;;-7.06;77.75;98604.50;2256365;79;20944;-81
2022/11/20 01:52:43;;;;;;;74.13;35.67;;;;;;;-7.02;77.80;98601.81;2257055;79;20927;-80
2022/11/20 01:55:43;;;;;;;67.83;32.27;;;;;;;-7.01;77.69;98604.47;2256701;79;20946;-80
2022/11/20 01:58:43;;;;;;;72.27;34.70;;;;;;;-6.96;78.21;98604.81;2257074;79;20904;-80
2022/11/20 02:01:44;;;;;;;70.97;34.50;;;;;;;-6.96;78.06;98606.08;2256888;79;20908;-80
2022/11/20 02:04:44;;;;;;;65.83;28.40;;;;;;;-6.91;78.01;98612.42;2257050;79;21256;-80
2022/11/20 02:07:45;;;;;;;56.27;28.03;;;;;;;-6.92;77.54;98609.00;2256907;79;20912;-79
2022/11/20 02:10:45;;;;;;;64.93;31.73;;;;;;;-7.02;76.80;98614.11;2256780;79;20935;-79
2022/11/20 02:13:46;;;;;;;66.13;33.43;;;;;;;-7.13;76.67;98611.14;2256767;79;21007;-79
2022/11/20 02:16:46;;;;;;;64.97;31.30;;;;;;;-7.17;76.99;98607.49;2256956;79;21261;-79
2022/11/20 02:19:46;;;;;;;66.57;29.73;;;;;;;-7.18;77.32;98604.45;2256941;79;20888;-80
2022/11/20 02:22:47;;;;;;;61.20;31.13;;;;;;;-7.18;77.16;98606.11;2257008;79;20916;-79
2022/11/20 02:25:47;;;;;;;65.37;31.37;;;;;;;-7.22;76.75;98605.38;2256937;79;20943;-80
2022/11/20 02:28:48;;;;;;;62.03;31.00;;;;;;;-7.25;77.28;98603.88;2257029;79;20908;-79
2022/11/20 02:31:48;;;;;;;72.10;32.03;;;;;;;-7.27;77.71;98603.75;2257029;79;20916;-79
2022/11/20 02:34:48;;;;;;;68.53;31.73;;;;;;;-7.25;78.76;98602.22;2256726;79;20904;-79
2022/11/20 02:37:51;;;;;;;66.07;32.03;;;;;;;-7.20;79.01;98596.23;2253465;79;21272;-80
2022/11/20 02:40:51;;;;;;;67.67;32.80;;;;;;;-7.13;79.02;98602.27;2256878;79;20900;-79
2022/11/20 02:43:51;;;;;;;70.53;33.90;;;;;;;-7.11;78.50;98611.77;2256607;78;20969;-79
2022/11/20 02:46:52;;;;;;;67.20;31.97;;;;;;;-7.11;78.30;98613.41;2256895;79;20940;-79
2022/11/20 02:49:52;;;;;;;72.13;35.57;;;;;;;-7.13;78.46;98615.84;2256445;79;20936;-79
2022/11/20 02:52:53;;;;;;;64.40;32.10;;;;;;;-7.12;78.63;98626.48;2256676;79;20936;-80
2022/11/20 02:55:53;;;;;;;69.40;32.43;;;;;;;-7.10;78.82;98628.75;2256561;79;20952;-80
2022/11/20 02:58:54;;;;;;;80.53;36.70;;;;;;;-7.06;79.63;98630.75;2255709;79;21273;-80
2022/11/20 03:01:54;;;;;;;77.17;38.63;;;;;;;-7.03;80.16;98631.38;2256246;79;20947;-80
2022/11/20 03:04:54;;;;;;;73.23;33.10;;;;;;;-6.93;80.26;98632.60;2256453;79;20873;-80
2022/11/20 03:07:55;;;;;;;77.70;37.93;;;;;;;-6.89;80.13;98628.64;2256272;79;20920;-79
2022/11/20 03:10:55;;;;;;;74.10;35.67;;;;;;;-6.89;80.54;98627.38;2256805;79;20904;-80
2022/11/20 03:13:55;;;;;;;84.17;39.43;;;;;;;-6.86;80.83;98619.99;2256575;79;21043;-80
2022/11/20 03:16:56;;;;;;;81.70;41.47;;;;;;;-6.82;81.01;98620.34;2256400;79;21252;-80
2022/11/20 03:19:56;;;;;;;82.47;37.73;;;;;;;-6.75;81.40;98622.56;2256396;79;20955;-80
2022/11/20 03:22:57;;;;;;;85.07;40.63;;;;;;;-6.71;81.55;98626.22;2256787;79;20924;-79
2022/11/20 03:25:57;;;;;;;79.03;37.43;;;;;;;-6.63;81.50;98628.94;2256717;79;20900;-79
2022/11/20 03:28:57;;;;;;;81.03;39.67;;;;;;;-6.60;80.99;98626.63;2256655;79;20959;-79
2022/11/20 03:31:58;;;;;;;79.50;37.13;;;;;;;-6.55;81.14;98622.78;2256869;79;20915;-79
2022/11/20 03:34:59;;;;;;;81.13;38.97;;;;;;;-6.57;81.00;98612.01;2257037;79;20920;-79
2022/11/20 03:37:59;;;;;;;81.27;39.73;;;;;;;-6.59;81.00;98616.97;2256854;79;21308;-80
2022/11/20 03:40:59;;;;;;;70.10;37.23;;;;;;;-6.65;80.40;98603.83;2257180;79;20952;-79
2022/11/20 03:43:59;;;;;;;90.13;44.60;;;;;;;-6.66;80.23;98608.79;2258345;79;21007;-79
2022/11/20 03:47:00;;;;;;;80.53;38.87;;;;;;;-6.68;80.45;98606.14;2260991;79;21303;-79
2022/11/20 03:50:00;;;;;;;78.13;39.10;;;;;;;-6.62;80.38;98602.78;2260444;79;20963;-79
2022/11/20 03:53:01;;;;;;;81.63;38.93;;;;;;;-6.63;80.27;98601.02;2260883;79;20912;-79
2022/11/20 03:56:01;;;;;;;77.87;37.87;;;;;;;-6.64;80.06;98603.44;2260991;79;20947;-79
2022/11/20 03:59:01;;;;;;;78.10;39.03;;;;;;;-6.69;79.75;98597.14;2260783;79;20923;-80
2022/11/20 04:02:02;;;;;;;75.77;38.50;;;;;;;-6.71;80.24;98605.91;2260685;79;20936;-79
2022/11/20 04:05:02;;;;;;;88.47;42.53;;;;;;;-6.69;80.16;98601.83;2260624;79;20912;-79
2022/11/20 04:08:03;;;;;;;80.23;40.10;;;;;;;-6.70;80.52;98596.64;2260760;79;20949;-80
2022/11/20 04:11:03;;;;;;;81.63;38.07;;;;;;;-6.68;80.43;98592.17;2260790;79;20927;-79
2022/11/20 04:14:03;;;;;;;79.03;40.80;;;;;;;-6.68;80.26;98590.91;2260683;79;21011;-79
2022/11/20 04:17:04;;;;;;;85.93;40.70;;;;;;;-6.68;80.33;98592.17;2260713;79;20931;-79
2022/11/20 04:20:04;;;;;;;81.60;39.77;;;;;;;-6.68;80.39;98592.56;2260788;79;20947;-80
2022/11/20 04:23:05;;;;;;;78.47;40.53;;;;;;;-6.66;80.63;98598.64;2260676;79;21260;-79
2022/11/20 04:26:05;;;;;;;85.00;42.03;;;;;;;-6.61;80.73;98590.97;2260916;79;20991;-79
2022/11/20 04:29:05;;;;;;;86.70;42.57;;;;;;;-6.60;80.38;98591.47;2260422;79;20920;-80
2022/11/20 04:32:06;;;;;;;83.70;41.13;;;;;;;-6.58;80.65;98587.00;2260247;79;20908;-80
2022/11/20 04:35:06;;;;;;;80.03;39.73;;;;;;;-6.58;80.18;98583.20;2260467;79;20915;-79
2022/11/20 04:38:07;;;;;;;84.07;39.03;;;;;;;-6.61;80.24;98588.44;2260806;79;20900;-79
2022/11/20 04:41:07;;;;;;;85.53;39.87;;;;;;;-6.64;79.72;98586.55;2260765;79;20960;-80
2022/11/20 04:44:07;;;;;;;85.80;40.57;;;;;;;-6.61;79.74;98588.44;2260271;77;21415;-82
2022/11/20 04:47:08;;;;;;;86.90;39.20;;;;;;;-6.60;79.78;98594.02;2260463;79;20912;-79
2022/11/20 04:50:08;;;;;;;83.53;40.87;;;;;;;-6.61;79.06;98588.44;2260859;79;20916;-79
2022/11/20 04:53:09;;;;;;;90.03;43.03;;;;;;;-6.66;78.82;98580.48;2260626;79;20952;-79
2022/11/20 04:56:09;;;;;;;90.37;43.43;;;;;;;-6.69;79.30;98570.48;2260688;79;20885;-80
2022/11/20 04:59:09;;;;;;;82.43;38.70;;;;;;;-6.69;79.29;98573.02;2260711;79;20939;-80
2022/11/20 05:02:10;;;;;;;76.63;39.27;;;;;;;-6.72;78.55;98569.88;2260053;79;20928;-80
2022/11/20 05:05:10;;;;;;;82.13;39.30;;;;;;;-6.82;78.09;98571.23;2260775;79;20939;-80
2022/11/20 05:08:11;;;;;;;82.07;39.20;;;;;;;-6.89;78.24;98569.01;2260578;79;20908;-79
2022/11/20 05:11:11;;;;;;;89.37;41.17;;;;;;;-6.95;78.29;98560.52;2260866;79;20923;-79
2022/11/20 05:14:12;;;;;;;85.17;38.73;;;;;;;-7.00;77.85;98557.14;2260745;79;20987;-79
2022/11/20 05:17:12;;;;;;;79.83;36.80;;;;;;;-7.02;77.72;98557.03;2260695;79;20889;-79
2022/11/20 05:20:12;;;;;;;80.50;38.93;;;;;;;-7.07;77.31;98557.07;2260861;79;20908;-80
2022/11/20 05:23:13;;;;;;;85.40;39.57;;;;;;;-7.11;76.91;98553.42;2260620;79;20955;-80
2022/11/20 05:26:13;;;;;;;79.10;40.77;;;;;;;-7.13;77.45;98557.49;2260533;79;21321;-80
2022/11/20 05:29:14;;;;;;;78.37;39.20;;;;;;;-7.11;77.50;98559.76;2260653;79;20979;-80
2022/11/20 05:32:14;;;;;;;83.00;42.00;;;;;;;-7.11;77.17;98562.30;2260615;79;20888;-80
2022/11/20 05:35:14;;;;;;;85.00;41.37;;;;;;;-7.09;77.69;98562.41;2260726;79;20955;-80
2022/11/20 05:38:15;;;;;;;91.23;42.30;;;;;;;-7.04;77.55;98565.30;2260699;79;20964;-79
2022/11/20 05:41:15;;;;;;;80.90;39.63;;;;;;;-7.02;77.61;98558.30;2261068;79;20993;-80
2022/11/20 05:44:16;;;;;;;83.77;40.80;;;;;;;-6.96;77.27;98554.06;2260705;78;21015;-80
2022/11/20 05:47:16;;;;;;;79.50;38.47;;;;;;;-6.96;78.21;98560.41;2260841;79;20892;-80
2022/11/20 05:50:16;;;;;;;88.83;41.47;;;;;;;-6.91;79.17;98561.28;2260790;79;20936;-79
2022/11/20 05:53:17;;;;;;;93.17;42.13;;;;;;;-6.83;79.60;98556.78;2260858;79;21376;-81
2022/11/20 05:56:17;;;;;;;80.80;39.07;;;;;;;-6.73;80.14;98545.27;2260929;79;20939;-79
2022/11/20 05:59:18;;;;;;;80.53;38.93;;;;;;;-6.63;80.42;98539.20;2261260;79;20892;-79
2022/11/20 06:02:18;;;;;;;90.47;40.50;;;;;;;-6.55;80.65;98540.26;2260699;79;20873;-80
2022/11/20 06:05:18;;;;;;;87.83;41.47;;;;;;;-6.48;80.51;98545.39;2260683;79;20904;-81
2022/11/20 06:08:19;;;;;;;91.43;43.80;;;;;;;-6.43;80.59;98541.14;2260592;79;20900;-81
2022/11/20 06:11:19;;;;;;;92.47;45.63;;;;;;;-6.35;80.45;98538.27;2259916;79;20974;-80
2022/11/20 06:14:20;;;;;;;86.70;41.43;;;;;;;-6.32;80.01;98538.50;2259917;79;21295;-80
2022/11/20 06:17:20;;;;;;;90.80;42.17;;;;;;;-6.33;79.52;98542.69;2259619;79;21134;-79
2022/11/20 06:20:20;;;;;;;84.10;38.70;;;;;;;-6.33;79.51;98548.16;2259197;79;20944;-79
2022/11/20 06:23:21;;;;;;;87.03;39.73;;;;;;;-6.33;79.80;98546.89;2259077;79;21351;-79
2022/11/20 06:26:21;;;;;;;87.90;41.10;;;;;;;-6.30;79.72;98552.19;2258855;79;20948;-79
2022/11/20 06:29:22;;;;;;;85.13;42.30;;;;;;;-6.32;80.00;98557.16;2258944;79;20915;-80
2022/11/20 06:32:22;;;;;;;95.67;45.37;;;;;;;-6.30;80.05;98547.11;2259143;79;20916;-79
2022/11/20 06:35:23;;;;;;;81.67;41.63;;;;;;;-6.25;80.46;98557.22;2259380;79;21440;-81
2022/11/20 06:38:24;;;;;;;81.60;41.30;;;;;;;-6.18;80.58;98550.14;2259329;79;20908;-79
2022/11/20 06:41:25;;;;;;;83.17;42.17;;;;;;;-6.06;80.55;98548.89;2259801;79;20896;-80
2022/11/20 06:44:24;;;;;;;86.90;41.83;;;;;;;-6.01;80.47;98546.30;2258525;79;20955;-80
2022/11/20 06:47:25;;;;;;;92.93;43.23;;;;;;;-5.94;80.44;98545.06;2255622;79;20912;-80
2022/11/20 06:50:25;;;;;;;96.47;45.53;;;;;;;-5.88;80.27;98545.08;2255703;79;20944;-80
2022/11/20 06:53:26;;;;;;;90.47;45.33;;;;;;;-5.81;80.22;98543.46;2255926;79;20905;-80
2022/11/20 06:56:26;;;;;;;85.63;43.20;;;;;;;-5.73;79.92;98538.03;2255892;79;20896;-79
2022/11/20 06:59:26;;;;;;;87.23;42.67;;;;;;;-5.71;79.61;98546.64;2255967;79;20904;-79
2022/11/20 07:02:27;;;;;;;80.93;41.83;;;;;;;-5.68;79.65;98537.57;2255635;79;21280;-81
2022/11/20 07:05:27;;;;;;;83.67;41.87;;;;;;;-5.63;79.63;98540.05;2255716;79;20901;-79
2022/11/20 07:08:28;;;;;;;111.70;44.73;;;;;;;-5.59;79.67;98540.75;2256074;79;20915;-78
2022/11/20 07:11:28;;;;;;;85.53;42.77;;;;;;;-5.51;79.75;98536.19;2256264;79;20900;-78
2022/11/20 07:14:29;;;;;;;95.50;45.37;;;;;;;-5.42;79.67;98528.31;2256198;79;21395;-78
2022/11/20 07:17:29;;;;;;;95.90;45.83;;;;;;;-5.33;79.56;98533.63;2256751;79;20869;-79
2022/11/20 07:20:29;;;;;;;86.83;43.77;;;;;;;-5.23;79.59;98528.39;2257140;79;20900;-79
2022/11/20 07:23:30;;;;;;;90.70;44.93;;;;;;;-5.14;79.26;98521.80;2257039;79;21268;-79
2022/11/20 07:26:30;;;;;;;88.90;43.63;;;;;;;-5.08;79.06;98523.88;2257058;79;20936;-79
2022/11/20 07:29:31;;;;;;;94.57;44.90;;;;;;;-5.00;78.93;98525.27;2257307;79;20932;-79
2022/11/20 07:32:31;;;;;;;92.33;43.70;;;;;;;-4.87;79.00;98526.18;2257176;79;20877;-79
2022/11/20 07:35:32;;;;;;;89.10;46.17;;;;;;;-4.76;78.88;98524.34;2257335;79;20927;-79
2022/11/20 07:38:32;;;;;;;91.63;43.87;;;;;;;-4.66;78.89;98527.98;2257458;79;20912;-80
2022/11/20 07:41:33;;;;;;;90.27;46.27;;;;;;;-4.54;78.89;98521.14;2257162;79;20916;-79
2022/11/20 07:44:33;;;;;;;85.33;43.67;;;;;;;-4.42;78.96;98521.05;2257043;78;20963;-80
2022/11/20 07:47:33;;;;;;;108.33;47.27;;;;;;;-4.32;78.66;98523.83;2257010;79;20927;-79
2022/11/20 07:50:34;;;;;;;85.20;43.07;;;;;;;-4.24;78.64;98518.44;2256802;79;20940;-79
2022/11/20 07:53:34;;;;;;;93.77;46.47;;;;;;;-4.22;78.35;98515.59;2256564;79;21291;-79
2022/11/20 07:56:35;;;;;;;94.07;48.57;;;;;;;-4.13;78.56;98519.12;2256463;79;20873;-79
2022/11/20 07:59:35;;;;;;;84.33;42.80;;;;;;;-3.99;78.39;98522.14;2256256;79;20912;-80
2022/11/20 08:02:35;;;;;;;96.10;48.47;;;;;;;-3.87;78.17;98518.20;2256150;79;20995;-79
2022/11/20 08:05:37;;;;;;;92.83;44.57;;;;;;;-3.85;77.95;98520.45;2256888;79;20877;-79
2022/11/20 08:08:38;;;;;;;96.87;47.77;;;;;;;-3.76;77.94;98522.30;2256749;79;21277;-79
2022/11/20 08:14:58;;;;;;;87.23;45.27;;;;;;;-3.59;78.30;98515.69;2256578;79;21026;-80
2022/11/20 08:17:56;;;;;;;99.13;47.87;;;;;;;-3.53;77.82;98519.89;2256640;79;21307;-79
2022/11/20 08:20:56;;;;;;;93.43;49.43;;;;;;;-3.43;78.01;98525.19;2256708;79;20912;-80
2022/11/20 08:23:57;;;;;;;83.20;41.57;;;;;;;-3.36;78.02;98520.95;2256551;79;20908;-80
2022/11/20 08:26:57;;;;;;;98.90;50.03;;;;;;;-3.21;78.07;98526.97;2256543;79;20908;-79
2022/11/20 08:29:57;;;;;;;83.87;44.60;;;;;;;-3.01;78.42;98518.83;2256623;79;20990;-79
2022/11/20 08:32:58;;;;;;;96.70;49.43;;;;;;;-2.84;77.85;98513.44;2256364;79;20960;-79
2022/11/20 08:36:03;;;;;;;92.97;47.87;;;;;;;-2.75;77.49;98507.58;2256512;79;20916;-80
2022/11/20 08:39:00;;;;;;;97.87;50.17;;;;;;;-2.61;77.36;98510.53;2253178;79;20905;-79
2022/11/20 08:42:01;;;;;;;90.23;49.07;;;;;;;-2.61;76.94;98514.37;2256405;79;20904;-79
2022/11/20 08:45:01;;;;;;;85.87;48.27;;;;;;;-2.50;76.92;98515.41;2257737;79;21019;-78
2022/11/20 08:48:02;;;;;;;94.27;50.17;;;;;;;-2.40;76.84;98518.98;2260365;79;20908;-79
2022/11/20 08:51:02;;;;;;;85.97;46.13;;;;;;;-2.31;76.86;98510.15;2260279;79;20931;-79
2022/11/20 08:54:02;;;;;;;90.00;50.33;;;;;;;-2.18;76.74;98511.72;2260003;79;20963;-79
2022/11/20 08:57:03;;;;;;;85.43;47.80;;;;;;;-2.11;76.63;98513.82;2260814;79;21047;-79
2022/11/20 09:00:03;;;;;;;159.77;81.80;;;;;;;-2.00;76.54;98508.90;2260502;79;21351;-81
2022/11/20 09:03:04;;;;;;;127.03;67.47;;;;;;;-0.02;100.00;98499.95;2260059;79;20947;-81
2022/11/20 09:06:04;;;;;;;146.30;78.83;;;;;;;4.68;100.00;98484.31;2260037;79;20900;-81
2022/11/20 09:09:05;;;;;;;111.40;62.23;;;;;;;8.08;97.73;98470.07;2259813;79;20896;-81
2022/11/20 09:12:05;;;;;;;120.70;69.77;;;;;;;10.34;85.98;98471.44;2259515;79;21324;-81
2022/11/20 09:15:05;;;;;;;117.97;70.07;;;;;;;11.82;76.49;98457.28;2259672;79;20991;-77
2022/11/20 09:18:06;;;;;;;90.20;56.47;;;;;;;12.55;64.08;98453.33;2259034;79;20970;-77
2022/11/20 09:21:06;;;;;;;103.23;65.13;;;;;;;9.38;53.38;98456.20;2260249;79;20951;-79
2022/11/20 09:24:07;;;;;;;84.03;53.40;;;;;;;9.25;60.14;98452.17;2259955;79;20947;-78
2022/11/20 09:27:07;;;;;;;82.80;51.77;;;;;;;6.88;53.75;98464.82;2259769;79;20868;-80
2022/11/20 09:30:07;;;;;;;117.83;72.27;;;;;;;4.71;54.79;98474.06;2260152;79;21030;-82
2022/11/20 09:33:08;;;;;;;144.43;86.63;;;;;;;3.63;75.82;98472.38;2261102;79;20884;-82
2022/11/20 09:36:08;;;;;;;152.70;94.07;;;;;;;7.42;79.28;98466.75;2260313;79;21307;-80
2022/11/20 09:39:09;;;;;;;164.57;99.03;;;;;;;10.26;66.88;98454.86;2259682;79;20951;-80
2022/11/20 09:42:09;;;;;;;138.80;85.60;;;;;;;11.15;62.14;98440.98;2259655;79;20872;-80
2022/11/20 09:45:09;;;;;;;146.07;92.30;;;;;;;11.68;58.59;98439.37;2259883;79;20963;-80
2022/11/20 09:48:10;;;;;;;128.87;83.53;;;;;;;11.82;57.06;98436.36;2260138;79;20907;-80
2022/11/20 09:51:10;;;;;;;121.50;80.90;;;;;;;11.96;56.45;98436.36;2259950;79;21006;-80
2022/11/20 09:54:11;;;;;;;137.90;90.00;;;;;;;12.07;56.29;98442.02;2260367;79;20900;-82
2022/11/20 09:57:11;;;;;;;98.70;65.27;;;;;;;12.95;59.85;98437.05;2260444;79;20948;-82
2022/11/20 10:00:14;;;;;;;142.98;73.92;;;;;;;14.21;57.20;98427.55;2260437;79;21435;-81
2022/11/20 10:03:15;;;;;;;103.38;68.90;;;;;;;14.90;52.79;98428.19;2260450;79;20916;-83
2022/11/20 10:06:15;;;;;;;82.25;54.90;;;;;;;15.17;50.41;98420.40;2260970;79;20912;-81
2022/11/20 10:09:16;;;;;;;80.90;58.28;;;;;;;15.34;47.48;98421.48;2260982;79;20935;-81
2022/11/20 10:12:16;;;;;;;83.15;57.13;;;;;;;15.60;46.82;98414.12;2260550;79;20880;-82
2022/11/20 10:15:16;;;;;;;85.62;60.05;;;;;;;15.52;46.40;98407.63;2260282;79;21323;-81
2022/11/20 10:18:17;;;;;;;94.40;63.98;;;;;;;15.82;45.63;98407.66;2260782;79;20876;-81
2022/11/20 10:21:17;;;;;;;79.12;55.83;;;;;;;16.15;42.33;98401.41;2261170;79;20876;-81
2022/11/20 10:24:18;;;;;;;89.00;61.70;;;;;;;16.28;42.91;98406.88;2261162;79;21284;-81
2022/11/20 10:27:18;;;;;;;89.32;63.85;;;;;;;16.36;41.87;98403.66;2261039;79;20927;-80
2022/11/20 10:30:19;;;;;;;92.27;65.65;;;;;;;16.15;41.51;98411.94;2260531;79;20908;-81
2022/11/20 10:33:19;;;;;;;89.87;64.95;;;;;;;16.11;41.69;98406.30;2260542;79;20950;-81
2022/11/20 10:36:19;;;;;;;76.67;53.52;;;;;;;16.09;40.96;98396.25;2260042;79;20943;-79
2022/11/20 10:39:20;;;;;;;89.80;62.50;;;;;;;13.20;35.22;98407.73;2260557;78;20908;-80
2022/11/20 10:42:20;;;;;;;90.32;61.10;;;;;;;10.49;46.12;98415.46;2260890;79;20927;-83
2022/11/20 10:45:21;;;;;;;91.20;64.03;;;;;;;12.50;46.73;98407.09;2259280;79;20979;-80
2022/11/20 10:48:21;;;;;;;94.22;65.08;;;;;;;13.55;44.36;98399.64;2256540;79;20908;-82
2022/11/20 10:51:22;;;;;;;90.80;62.53;;;;;;;14.14;44.42;98402.24;2256139;79;20983;-80
2022/11/20 10:54:22;;;;;;;96.02;64.55;;;;;;;14.94;43.01;98398.36;2256426;79;20935;-82
2022/11/20 10:57:22;;;;;;;96.20;65.22;;;;;;;15.65;42.10;98394.34;2256384;79;20912;-82
2022/11/20 11:00:23;;;;;;;94.10;62.78;;;;;;;15.93;38.91;98399.59;2256790;79;20912;-81
2022/11/20 11:03:23;;;;;;;78.52;54.60;;;;;;;15.24;40.70;98397.95;2255980;79;20884;-79
2022/11/20 11:06:23;;;;;;;81.00;53.65;;;;;;;14.52;36.61;98390.06;2255624;79;20897;-79
2022/11/20 11:09:24;;;;;;;77.95;52.88;;;;;;;11.38;36.70;98391.42;2255667;79;20943;-79
2022/11/20 11:12:24;;;;;;;82.47;52.95;;;;;;;8.42;38.76;98391.28;2255809;79;21124;-78
2022/11/20 11:15:25;;;;;;;82.83;55.20;;;;;;;6.17;42.55;98391.58;2255656;79;20908;-79
2022/11/20 11:18:29;;;;;;;88.63;54.60;;;;;;;4.57;45.19;98393.06;2255647;79;21346;-78
2022/11/20 11:21:28;;;;;;;91.57;56.40;;;;;;;3.55;47.98;98389.54;2255621;79;20932;-79
2022/11/20 11:24:29;;;;;;;85.77;53.87;;;;;;;2.68;50.21;98384.41;2255639;79;20873;-79
2022/11/20 11:27:29;;;;;;;98.97;57.50;;;;;;;2.00;52.94;98386.19;2255786;79;20924;-79
2022/11/20 11:30:30;;;;;;;95.70;55.70;;;;;;;1.54;54.53;98388.64;2255637;79;20940;-78
2022/11/20 11:33:30;;;;;;;92.77;54.33;;;;;;;1.25;56.09;98391.33;2255709;79;20940;-79
2022/11/20 11:36:30;;;;;;;93.53;54.67;;;;;;;1.06;57.37;98405.12;2255603;79;20897;-79
2022/11/20 11:39:31;;;;;;;96.50;56.23;;;;;;;0.83;58.79;98407.97;2255678;79;20932;-79
2022/11/20 11:42:31;;;;;;;101.33;57.73;;;;;;;0.59;59.24;98413.33;2255486;79;20900;-80
2022/11/20 11:45:32;;;;;;;106.50;60.23;;;;;;;0.44;60.26;98404.95;2256657;79;21399;-79
2022/11/20 11:48:32;;;;;;;107.73;60.30;;;;;;;0.35;60.77;98400.70;2259343;79;20947;-79
2022/11/20 11:51:32;;;;;;;115.27;61.80;;;;;;;0.27;61.63;98401.64;2259577;79;20954;-78
2022/11/20 11:54:33;;;;;;;101.83;57.27;;;;;;;0.25;62.15;98399.41;2259581;79;20955;-78
2022/11/20 11:57:33;;;;;;;108.37;61.03;;;;;;;0.22;63.28;98383.88;2259370;79;20916;-78
2022/11/20 12:00:34;;;;;;;118.23;68.90;;;;;;;0.17;63.38;98382.79;2259413;79;21236;-79
2022/11/20 12:03:34;;;;;;;135.77;80.37;;;;;;;0.24;71.69;98385.70;2259843;79;20944;-80
2022/11/20 12:06:35;;;;;;;144.17;82.97;;;;;;;3.37;79.77;98363.11;2259364;79;21136;-82
2022/11/20 12:09:35;;;;;;;118.20;70.50;;;;;;;6.20;70.54;98351.90;2259904;79;20974;-78
2022/11/20 12:12:35;;;;;;;113.10;66.33;;;;;;;8.08;61.37;98337.50;2259696;79;20943;-80
2022/11/20 12:15:36;;;;;;;109.13;62.83;;;;;;;7.47;55.26;98339.59;2259545;79;20884;-78
2022/11/20 12:18:36;;;;;;;110.37;65.57;;;;;;;5.89;53.56;98344.73;2259728;79;20912;-80
2022/11/20 12:21:37;;;;;;;117.27;66.03;;;;;;;4.51;54.75;98347.25;2259956;79;20904;-79
2022/11/20 12:24:37;;;;;;;110.93;66.43;;;;;;;3.25;56.97;98341.67;2259767;79;20904;-78
2022/11/20 12:27:37;;;;;;;118.23;66.13;;;;;;;2.26;59.08;98343.38;2248492;79;20905;-78
2022/11/20 12:30:38;;;;;;;122.50;67.60;;;;;;;1.77;60.46;98339.40;2248763;79;21110;-78
2022/11/20 12:33:38;;;;;;;117.03;64.03;;;;;;;1.48;61.95;98336.95;2245651;79;20901;-79
2022/11/20 12:36:41;;;;;;;108.93;61.20;;;;;;;1.16;63.85;98327.56;2242594;79;20936;-79
2022/11/20 12:39:41;;;;;;;114.07;64.70;;;;;;;0.88;64.36;98323.41;2245740;79;20928;-78
2022/11/20 12:46:00;;;;;;;116.80;60.97;;;;;;;0.58;65.85;98319.99;2245440;79;20979;-78
2022/11/20 12:49:01;;;;;;;107.10;58.83;;;;;;;0.54;66.81;98323.25;2245179;79;20924;-78
2022/11/20 12:52:01;;;;;;;107.27;60.27;;;;;;;0.44;67.43;98310.83;2245771;79;20916;-78
2022/11/20 12:55:01;;;;;;;105.70;60.00;;;;;;;0.45;68.35;98310.02;2245524;79;21316;-79
2022/11/20 12:58:02;;;;;;;103.57;57.50;;;;;;;0.45;69.34;98306.16;2245532;79;20901;-79
2022/11/20 13:01:02;;;;;;;101.20;58.33;;;;;;;0.37;69.09;98301.11;2245371;79;21034;-78
2022/11/20 13:04:03;;;;;;;102.67;57.70;;;;;;;0.30;69.62;98304.22;2245508;79;20959;-78
2022/11/20 13:07:03;;;;;;;101.57;53.83;;;;;;;0.30;70.49;98295.23;2245417;79;21284;-80
2022/11/20 13:10:03;;;;;;;101.07;55.90;;;;;;;0.28;70.52;98290.04;2245434;79;20992;-78
2022/11/20 13:13:04;;;;;;;96.73;55.93;;;;;;;0.29;71.62;98283.22;2245536;79;20960;-78
2022/11/20 13:16:04;;;;;;;107.70;58.40;;;;;;;0.23;71.20;98281.27;2245493;79;20943;-78
2022/11/20 13:19:05;;;;;;;104.80;56.27;;;;;;;0.18;71.53;98290.45;2245432;79;21304;-78
2022/11/20 13:22:05;;;;;;;93.30;52.27;;;;;;;0.18;71.69;98296.00;2245379;79;20936;-78
2022/11/20 13:25:05;;;;;;;97.47;52.60;;;;;;;0.15;71.95;98295.86;2245646;79;20913;-78
2022/11/20 13:28:06;;;;;;;93.63;52.77;;;;;;;0.05;72.20;98292.42;2245677;79;20944;-79
2022/11/20 13:31:06;;;;;;;97.93;55.03;;;;;;;-0.04;72.31;98296.30;2245551;79;21273;-78
2022/11/20 13:34:07;;;;;;;99.30;55.67;;;;;;;-0.08;72.58;98299.95;2245537;79;20945;-78
2022/11/20 13:37:07;;;;;;;99.60;54.40;;;;;;;-0.09;72.85;98290.09;2245626;79;20861;-78
2022/11/20 13:40:07;;;;;;;100.60;55.60;;;;;;;-0.12;73.08;98283.55;2245525;79;20948;-78
2022/11/20 13:43:08;;;;;;;98.77;53.83;;;;;;;-0.06;73.54;98285.09;2245440;79;21136;-79
2022/11/20 13:46:08;;;;;;;102.10;58.67;;;;;;;0.01;73.56;98282.83;2245308;79;21022;-80
2022/11/20 13:49:09;;;;;;;98.93;55.87;;;;;;;0.03;73.81;98276.08;2245566;79;20949;-78
2022/11/20 13:52:09;;;;;;;97.43;55.53;;;;;;;-0.01;73.84;98275.91;2245626;79;20936;-78
2022/11/20 13:55:10;;;;;;;92.77;51.43;;;;;;;-0.05;73.96;98275.71;2245566;79;20905;-78